createdAt,value
2019-03-27T00:01:54.919Z,7.30
2019-03-27T00:04:24.743Z,8.48
2019-03-27T00:06:54.938Z,6.92
2019-03-27T00:09:24.718Z,8.43
2019-03-27T00:11:54.430Z,9.90
2019-03-27T00:14:24.136Z,9.55
2019-03-27T00:16:54.018Z,10.05
2019-03-27T00:19:23.920Z,8.58
2019-03-27T00:21:53.678Z,7.67
2019-03-27T00:24:23.492Z,8.05
2019-03-27T00:26:53.232Z,7.47
2019-03-27T00:29:22.950Z,8.60
2019-03-27T00:31:52.743Z,7.80
2019-03-27T00:34:22.580Z,7.45
2019-03-27T00:36:52.392Z,7.53
2019-03-27T00:39:22.086Z,7.53
2019-03-27T00:41:51.863Z,7.30
2019-03-27T00:44:21.567Z,9.75
2019-03-27T00:46:51.344Z,8.70
2019-03-27T00:49:21.084Z,8.90
2019-03-27T00:51:50.853Z,11.08
2019-03-27T00:54:20.810Z,10.13
2019-03-27T00:56:50.646Z,9.50
2019-03-27T00:59:22.953Z,8.98
2019-03-27T01:01:52.748Z,7.40
2019-03-27T01:04:22.536Z,7.28
2019-03-27T01:06:52.222Z,6.05
2019-03-27T01:09:22.042Z,5.80
2019-03-27T01:11:51.810Z,7.33
2019-03-27T01:14:21.641Z,10.65
2019-03-27T01:16:51.484Z,9.73
2019-03-27T01:19:21.239Z,8.28
2019-03-27T01:21:50.965Z,9.08
2019-03-27T01:24:20.716Z,9.35
2019-03-27T01:26:50.495Z,8.38
2019-03-27T01:29:20.326Z,7.37
2019-03-27T01:31:50.154Z,8.30
2019-03-27T01:34:19.944Z,7.55
2019-03-27T01:36:49.818Z,7.22
2019-03-27T01:39:19.581Z,8.85
2019-03-27T01:41:49.247Z,6.85
2019-03-27T01:44:18.988Z,7.62
2019-03-27T01:46:49.662Z,7.10
2019-03-27T01:49:19.487Z,7.80
2019-03-27T01:51:49.262Z,9.20
2019-03-27T01:54:19.073Z,9.38
2019-03-27T01:56:48.905Z,10.05
2019-03-27T01:59:18.671Z,9.75
2019-03-27T02:01:48.500Z,11.57
2019-03-27T02:04:18.306Z,12.40
2019-03-27T02:06:48.202Z,11.00
2019-03-27T02:09:18.027Z,10.23
2019-03-27T02:11:47.866Z,11.43
2019-03-27T02:14:17.683Z,10.72
2019-03-27T02:16:47.459Z,8.60
2019-03-27T02:19:17.237Z,8.23
2019-03-27T02:21:47.071Z,10.48
2019-03-27T02:24:16.850Z,11.45
2019-03-27T02:26:46.551Z,11.33
2019-03-27T02:29:16.238Z,12.75
2019-03-27T02:31:45.955Z,12.70
2019-03-27T02:34:15.657Z,13.18
2019-03-27T02:36:45.485Z,12.73
2019-03-27T02:39:15.233Z,12.80
2019-03-27T02:41:44.920Z,12.40
2019-03-27T02:44:14.777Z,13.40
2019-03-27T02:46:44.608Z,14.35
2019-03-27T02:49:14.415Z,14.93
2019-03-27T02:51:44.137Z,14.63
2019-03-27T02:54:13.899Z,15.00
2019-03-27T02:56:43.743Z,14.43
2019-03-27T02:59:13.565Z,14.55
2019-03-27T03:01:47.671Z,14.00
2019-03-27T03:04:14.953Z,13.70
2019-03-27T03:06:44.657Z,11.75
2019-03-27T03:09:14.465Z,11.08
2019-03-27T03:11:44.224Z,12.58
2019-03-27T03:14:13.899Z,12.13
2019-03-27T03:16:43.717Z,13.75
2019-03-27T03:19:13.542Z,13.15
2019-03-27T03:21:43.381Z,12.68
2019-03-27T03:24:13.197Z,10.90
2019-03-27T03:26:42.902Z,9.25
2019-03-27T03:29:12.736Z,10.80
2019-03-27T03:31:42.378Z,7.55
2019-03-27T03:34:12.340Z,9.20
2019-03-27T03:36:42.026Z,7.20
2019-03-27T03:39:11.792Z,7.50
2019-03-27T03:41:41.664Z,7.62
2019-03-27T03:44:11.622Z,8.83
2019-03-27T03:46:58.413Z,9.40
2019-03-27T03:49:12.889Z,9.20
2019-03-27T03:51:42.723Z,9.00
2019-03-27T03:54:13.057Z,10.15
2019-03-27T03:56:43.362Z,12.47
2019-03-27T03:59:15.241Z,11.38
2019-03-27T04:01:46.003Z,8.75
2019-03-27T04:04:17.461Z,8.20
2019-03-27T04:06:47.280Z,8.30
2019-03-27T04:09:17.050Z,8.20
2019-03-27T04:11:46.892Z,9.23
2019-03-27T04:14:16.631Z,9.55
2019-03-27T04:16:46.556Z,10.78
2019-03-27T04:19:16.453Z,12.00
2019-03-27T04:21:46.243Z,12.07
2019-03-27T04:24:15.985Z,12.73
2019-03-27T04:26:45.762Z,12.60
2019-03-27T04:29:15.451Z,13.00
2019-03-27T04:31:45.261Z,12.45
2019-03-27T04:34:14.897Z,12.23
2019-03-27T04:36:45.151Z,13.58
2019-03-27T04:39:15.004Z,14.87
2019-03-27T04:41:44.856Z,13.18
2019-03-27T04:44:14.695Z,12.43
2019-03-27T04:46:46.518Z,13.08
2019-03-27T04:49:16.222Z,12.47
2019-03-27T04:51:46.027Z,15.13
2019-03-27T04:54:15.785Z,12.95
2019-03-27T04:56:45.819Z,13.65
2019-03-27T04:59:15.614Z,13.62
2019-03-27T05:01:45.405Z,14.35
2019-03-27T05:04:15.205Z,13.35
2019-03-27T05:06:45.003Z,14.60
2019-03-27T05:09:14.908Z,17.70
2019-03-27T05:11:44.751Z,16.57
2019-03-27T05:14:14.518Z,15.58
2019-03-27T05:16:45.769Z,13.90
2019-03-27T05:19:15.504Z,13.62
2019-03-27T05:21:45.300Z,12.50
2019-03-27T05:24:14.999Z,12.85
2019-03-27T05:26:44.778Z,13.85
2019-03-27T05:29:14.572Z,12.93
2019-03-27T05:31:44.336Z,11.73
2019-03-27T05:34:14.106Z,10.72
2019-03-27T05:36:43.990Z,11.63
2019-03-27T05:39:14.772Z,10.63
2019-03-27T05:41:47.056Z,11.48
2019-03-27T05:44:16.876Z,10.85
2019-03-27T05:46:46.540Z,11.80
2019-03-27T05:49:19.158Z,12.23
2019-03-27T05:51:48.807Z,11.43
2019-03-27T05:54:18.553Z,12.65
2019-03-27T05:56:48.421Z,12.33
2019-03-27T05:59:18.254Z,10.88
2019-03-27T06:01:48.031Z,12.73
2019-03-27T06:04:17.789Z,12.25
2019-03-27T06:06:47.553Z,12.95
2019-03-27T06:09:17.307Z,13.75
2019-03-27T06:11:46.964Z,15.32
2019-03-27T06:14:16.905Z,15.00
2019-03-27T06:16:46.623Z,14.50
2019-03-27T06:19:16.365Z,14.07
2019-03-27T06:21:46.158Z,12.10
2019-03-27T06:24:15.984Z,11.68
2019-03-27T06:26:45.792Z,11.48
2019-03-27T06:29:15.957Z,13.50
2019-03-27T06:31:46.112Z,12.70
2019-03-27T06:34:16.043Z,13.25
2019-03-27T06:36:46.994Z,12.78
2019-03-27T06:39:16.789Z,13.75
2019-03-27T06:41:46.658Z,13.00
2019-03-27T06:44:16.428Z,13.58
2019-03-27T06:46:46.173Z,14.30
2019-03-27T06:49:15.973Z,12.58
2019-03-27T06:51:45.753Z,15.90
2019-03-27T06:54:15.566Z,14.33
2019-03-27T06:56:45.437Z,14.80
2019-03-27T06:59:15.117Z,13.95
2019-03-27T07:01:45.152Z,13.85
2019-03-27T07:04:14.977Z,13.95
2019-03-27T07:06:44.713Z,15.10
2019-03-27T07:09:14.798Z,15.93
2019-03-27T07:11:44.482Z,14.07
2019-03-27T07:14:14.369Z,16.30
2019-03-27T07:16:44.148Z,18.55
2019-03-27T07:19:13.885Z,16.82
2019-03-27T07:21:43.720Z,16.80
2019-03-27T07:24:13.561Z,16.45
2019-03-27T07:26:43.283Z,16.25
2019-03-27T07:29:13.180Z,19.52
2019-03-27T07:31:42.919Z,16.73
2019-03-27T07:34:12.699Z,17.17
2019-03-27T07:36:42.569Z,22.77
2019-03-27T07:39:12.442Z,20.00
2019-03-27T07:41:42.260Z,18.60
2019-03-27T07:44:11.952Z,18.20
2019-03-27T07:46:41.642Z,18.35
2019-03-27T07:49:11.527Z,17.80
2019-03-27T07:51:41.248Z,16.62
2019-03-27T07:54:11.011Z,17.27
2019-03-27T07:56:40.966Z,19.48
2019-03-27T07:59:10.830Z,18.65
2019-03-27T08:01:40.674Z,19.32
2019-03-27T08:04:10.460Z,16.60
2019-03-27T08:06:40.192Z,19.50
2019-03-27T08:09:09.938Z,19.15
2019-03-27T08:11:39.876Z,19.98
2019-03-27T08:14:09.673Z,20.20
2019-03-27T08:16:39.501Z,21.62
2019-03-27T08:19:09.238Z,25.48
2019-03-27T08:21:38.973Z,24.75
2019-03-27T08:24:08.805Z,22.73
2019-03-27T08:26:38.552Z,24.52
2019-03-27T08:29:08.307Z,28.75
2019-03-27T08:31:38.085Z,29.05
2019-03-27T08:34:07.872Z,28.92
2019-03-27T08:36:37.730Z,30.15
2019-03-27T08:39:09.094Z,31.37
2019-03-27T08:41:38.953Z,29.37
2019-03-27T08:44:08.794Z,32.08
2019-03-27T08:46:38.569Z,31.17
2019-03-27T08:49:21.363Z,37.70
2019-03-27T08:51:39.943Z,34.15
2019-03-27T08:54:09.667Z,36.58
2019-03-27T08:56:39.497Z,42.05
2019-03-27T08:59:09.239Z,43.05
2019-03-27T09:01:38.970Z,47.30
2019-03-27T09:04:08.781Z,49.40
2019-03-27T09:06:38.532Z,45.50
2019-03-27T09:09:09.609Z,41.70
2019-03-27T09:11:39.407Z,44.00
2019-03-27T09:14:09.123Z,44.67
2019-03-27T09:16:38.958Z,47.83
2019-03-27T09:19:08.731Z,46.23
2019-03-27T09:21:38.465Z,45.17
2019-03-27T09:24:08.238Z,44.23
2019-03-27T09:26:37.978Z,43.10
2019-03-27T09:29:09.588Z,40.83
2019-03-27T09:31:45.004Z,41.48
2019-03-27T09:34:10.896Z,38.90
2019-03-27T09:36:40.605Z,39.85
2019-03-27T09:39:10.819Z,39.03
2019-03-27T09:41:40.561Z,44.90
2019-03-27T09:44:10.498Z,39.77
2019-03-27T09:46:40.241Z,36.77
2019-03-27T09:49:10.033Z,35.70
2019-03-27T09:51:39.765Z,36.00
2019-03-27T09:54:09.572Z,36.20
2019-03-27T09:56:39.335Z,38.77
2019-03-27T09:59:11.497Z,35.97
2019-03-27T10:01:41.363Z,37.30
2019-03-27T10:04:11.257Z,35.97
2019-03-27T10:06:40.966Z,37.57
2019-03-27T10:09:10.917Z,35.50
2019-03-27T10:11:40.597Z,38.00
2019-03-27T10:14:10.305Z,38.50
2019-03-27T10:16:40.073Z,36.50
2019-03-27T10:19:09.781Z,35.07
2019-03-27T10:21:39.543Z,31.20
2019-03-27T10:24:09.291Z,31.90
2019-03-27T10:26:42.434Z,32.40
2019-03-27T10:29:10.685Z,25.53
2019-03-27T10:31:41.313Z,20.70
2019-03-27T10:34:11.055Z,19.83
2019-03-27T10:36:40.793Z,22.17
2019-03-27T10:39:10.564Z,19.97
2019-03-27T10:41:40.365Z,19.23
2019-03-27T10:44:10.057Z,21.77
2019-03-27T10:46:39.994Z,17.90
2019-03-27T10:49:09.678Z,19.53
2019-03-27T10:51:39.653Z,14.50
2019-03-27T10:54:09.385Z,14.80
2019-03-27T10:56:39.173Z,11.27
2019-03-27T10:59:08.931Z,14.50
2019-03-27T11:01:38.716Z,14.70
2019-03-27T11:04:08.439Z,18.20
2019-03-27T11:06:38.235Z,18.80
2019-03-27T11:09:09.673Z,16.43
2019-03-27T11:11:39.557Z,16.77
2019-03-27T11:14:11.594Z,18.80
2019-03-27T11:16:42.572Z,16.40
2019-03-27T11:19:12.359Z,18.10
2019-03-27T11:21:42.078Z,17.00
2019-03-27T11:24:13.618Z,15.53
2019-03-27T11:26:43.410Z,15.80
2019-03-27T11:29:13.166Z,17.53
2019-03-27T11:31:42.839Z,16.67
2019-03-27T11:34:12.582Z,18.03
2019-03-27T11:36:42.499Z,19.67
2019-03-27T11:39:12.164Z,18.33
2019-03-27T11:41:41.924Z,19.87
2019-03-27T11:44:12.842Z,22.40
2019-03-27T11:46:42.747Z,19.50
2019-03-27T11:49:12.553Z,22.17
2019-03-27T11:51:42.469Z,20.50
2019-03-27T11:54:12.294Z,19.80
2019-03-27T11:56:42.167Z,24.50
2019-03-27T11:59:11.939Z,24.30
2019-03-27T12:01:43.710Z,32.53
2019-03-27T12:04:13.410Z,23.17
2019-03-27T12:06:43.174Z,25.50
2019-03-27T12:09:13.033Z,25.87
2019-03-27T12:11:42.736Z,22.90
2019-03-27T12:14:12.547Z,23.37
2019-03-27T12:16:42.350Z,21.47
2019-03-27T12:19:12.018Z,22.20
2019-03-27T12:21:42.895Z,22.40
2019-03-27T12:24:12.626Z,18.97
2019-03-27T12:26:42.312Z,20.87
2019-03-27T12:29:12.180Z,19.67
2019-03-27T12:31:41.966Z,18.33
2019-03-27T12:34:11.718Z,19.97
2019-03-27T12:36:41.417Z,19.20
2019-03-27T12:39:11.215Z,16.30
2019-03-27T12:41:40.957Z,17.57
2019-03-27T12:44:14.248Z,15.63
2019-03-27T12:46:44.056Z,14.97
2019-03-27T12:49:13.839Z,16.30
2019-03-27T12:51:43.592Z,17.40
2019-03-27T12:54:13.472Z,17.00
2019-03-27T12:56:43.368Z,15.97
2019-03-27T12:59:13.093Z,15.60
2019-03-27T13:01:42.903Z,16.90
2019-03-27T13:04:12.833Z,13.77
2019-03-27T13:06:43.616Z,16.20
2019-03-27T13:09:13.801Z,14.73
2019-03-27T13:11:43.658Z,14.10
2019-03-27T13:14:13.554Z,16.87
2019-03-27T13:16:43.372Z,12.17
2019-03-27T13:19:13.116Z,12.07
2019-03-27T13:21:42.895Z,12.37
2019-03-27T13:24:12.636Z,13.90
2019-03-27T13:26:42.358Z,11.00
2019-03-27T13:29:12.166Z,13.83
2019-03-27T13:31:42.066Z,12.63
2019-03-27T13:34:11.764Z,14.47
2019-03-27T13:36:45.986Z,11.60
2019-03-27T13:39:16.948Z,13.67
2019-03-27T13:41:46.704Z,11.07
2019-03-27T13:44:16.454Z,11.13
2019-03-27T13:46:46.302Z,10.60
2019-03-27T13:49:16.441Z,11.17
2019-03-27T13:51:46.244Z,12.10
2019-03-27T13:54:16.654Z,19.60
2019-03-27T13:56:46.689Z,12.73
2019-03-27T13:59:16.476Z,11.67
2019-03-27T14:01:46.443Z,12.30
2019-03-27T14:04:16.302Z,12.33
2019-03-27T14:06:46.076Z,10.93
2019-03-27T14:09:15.895Z,10.40
2019-03-27T14:11:45.656Z,10.60
2019-03-27T14:14:15.411Z,9.50
2019-03-27T14:16:45.299Z,10.87
2019-03-27T14:19:15.189Z,10.40
2019-03-27T14:21:54.567Z,11.97
2019-03-27T14:24:16.598Z,9.83
2019-03-27T14:26:46.378Z,9.47
2019-03-27T14:29:16.337Z,8.47
2019-03-27T14:36:44.121Z,9.40
2019-03-27T14:39:14.167Z,9.00
2019-03-27T14:41:44.300Z,11.43
2019-03-27T14:44:14.076Z,8.70
2019-03-27T14:46:43.932Z,10.03
2019-03-27T14:49:13.675Z,10.20
2019-03-27T14:51:43.402Z,9.30
2019-03-27T14:54:13.365Z,9.50
2019-03-27T14:56:43.393Z,10.37
2019-03-27T14:59:13.285Z,9.97
2019-03-27T15:01:43.927Z,10.23
2019-03-27T15:04:14.295Z,11.40
2019-03-27T15:06:44.702Z,12.13
2019-03-27T15:09:14.535Z,10.37
2019-03-27T15:11:44.287Z,8.40
2019-03-27T15:14:14.325Z,10.00
2019-03-27T15:16:44.113Z,9.53
2019-03-27T15:19:14.210Z,9.87
2019-03-27T15:21:45.564Z,10.13
2019-03-27T15:24:15.324Z,10.07
2019-03-27T15:26:47.715Z,9.93
2019-03-27T15:29:19.028Z,9.63
2019-03-27T15:31:54.544Z,9.03
2019-03-27T15:34:24.398Z,11.55
2019-03-27T15:37:02.742Z,11.40
2019-03-27T15:39:35.843Z,12.17
2019-03-27T15:42:05.062Z,11.87
2019-03-27T15:44:34.897Z,12.40
2019-03-27T15:47:05.785Z,13.43
2019-03-27T15:49:35.621Z,12.30
2019-03-27T15:52:06.091Z,13.53
2019-03-27T15:54:36.058Z,13.87
2019-03-27T15:57:06.062Z,14.20
2019-03-27T15:59:38.977Z,13.80
2019-03-27T16:02:08.902Z,14.10
2019-03-27T16:04:39.033Z,15.67
2019-03-27T16:07:11.173Z,16.07
2019-03-27T16:09:41.037Z,17.53
2019-03-27T16:12:11.065Z,16.43
2019-03-27T16:14:40.935Z,13.37
2019-03-27T16:17:13.524Z,14.73
2019-03-27T16:19:42.345Z,14.40
2019-03-27T16:22:12.349Z,16.13
2019-03-27T16:24:42.301Z,16.40
2019-03-27T16:27:12.677Z,15.80
2019-03-27T16:29:43.063Z,13.20
2019-03-27T16:32:12.965Z,12.13
2019-03-27T16:34:42.661Z,13.67
2019-03-27T16:37:12.812Z,14.53
2019-03-27T16:39:42.570Z,13.00
2019-03-27T16:42:12.355Z,13.30
2019-03-27T16:44:42.235Z,13.63
2019-03-27T16:47:12.203Z,13.07
2019-03-27T16:49:42.061Z,13.23
2019-03-27T16:52:12.409Z,13.70
2019-03-27T16:54:42.219Z,12.90
2019-03-27T16:57:11.939Z,12.67
2019-03-27T16:59:41.873Z,12.83
2019-03-27T17:02:12.018Z,17.00
2019-03-27T17:04:43.249Z,15.33
2019-03-27T17:07:14.759Z,14.20
2019-03-27T17:09:44.828Z,13.80
2019-03-27T17:12:14.507Z,13.73
2019-03-27T17:14:44.927Z,13.77
2019-03-27T17:17:14.729Z,7.10
2019-03-27T17:19:44.460Z,15.03
2019-03-27T17:22:19.808Z,13.90
2019-03-27T17:24:45.836Z,13.20
2019-03-27T17:27:15.555Z,12.20
2019-03-27T17:29:45.447Z,14.00
2019-03-27T17:32:15.275Z,14.40
2019-03-27T17:34:45.031Z,14.30
2019-03-27T17:37:15.150Z,13.83
2019-03-27T17:39:45.221Z,14.60
2019-03-27T17:42:14.928Z,15.23
2019-03-27T17:44:44.794Z,14.33
2019-03-27T17:47:15.031Z,13.33
2019-03-27T17:49:44.829Z,12.20
2019-03-27T17:52:14.549Z,12.10
2019-03-27T17:54:44.270Z,11.00
2019-03-27T17:57:14.119Z,10.97
2019-03-27T17:59:43.925Z,11.63
2019-03-27T18:02:13.709Z,11.50
2019-03-27T18:04:43.509Z,6.50
2019-03-27T18:07:13.301Z,9.10
2019-03-27T18:09:43.044Z,10.37
2019-03-27T18:12:12.867Z,10.60
2019-03-27T18:14:42.679Z,10.70
2019-03-27T18:17:12.433Z,9.50
2019-03-27T18:19:42.395Z,11.20
2019-03-27T18:22:12.175Z,10.27
2019-03-27T18:24:41.963Z,10.20
2019-03-27T18:27:11.984Z,10.97
2019-03-27T18:29:44.691Z,12.13
2019-03-27T18:32:15.455Z,12.30
2019-03-27T18:34:45.190Z,12.40
2019-03-27T18:37:15.026Z,12.15
2019-03-27T18:39:44.815Z,12.37
2019-03-27T18:42:17.152Z,12.00
2019-03-27T18:44:47.001Z,12.30
2019-03-27T18:47:16.866Z,11.77
2019-03-27T18:49:46.833Z,12.63
2019-03-27T18:52:16.772Z,12.40
2019-03-27T18:54:46.687Z,11.70
2019-03-27T18:57:16.600Z,11.18
2019-03-27T18:59:46.541Z,12.65
2019-03-27T19:02:16.577Z,11.83
2019-03-27T19:04:46.417Z,12.95
2019-03-27T19:07:16.253Z,12.50
2019-03-27T19:09:45.973Z,12.93
2019-03-27T19:12:15.728Z,11.90
2019-03-27T19:14:45.594Z,12.30
2019-03-27T19:17:15.334Z,13.67
2019-03-27T19:19:45.203Z,13.20
2019-03-27T19:22:15.028Z,14.60
2019-03-27T19:24:44.979Z,14.03
2019-03-27T19:27:14.905Z,16.00
2019-03-27T19:29:45.102Z,15.83
2019-03-27T19:32:14.992Z,14.57
2019-03-27T19:34:44.697Z,16.47
2019-03-27T19:37:23.277Z,15.00
2019-03-27T19:39:53.063Z,15.53
2019-03-27T19:42:23.252Z,15.07
2019-03-27T19:44:53.448Z,14.90
2019-03-27T19:47:23.673Z,17.73
2019-03-27T19:49:53.466Z,23.47
2019-03-27T19:52:23.241Z,17.37
2019-03-27T19:54:53.423Z,15.20
2019-03-27T19:57:23.249Z,13.43
2019-03-27T19:59:53.158Z,16.85
2019-03-27T20:02:22.946Z,17.00
2019-03-27T20:04:52.723Z,13.80
2019-03-27T20:07:35.261Z,15.55
2019-03-27T20:09:54.164Z,14.70
2019-03-27T20:12:24.268Z,16.67
2019-03-27T20:14:54.155Z,15.00
2019-03-27T20:17:23.970Z,13.88
2019-03-27T20:19:53.732Z,17.15
2019-03-27T20:22:23.838Z,17.32
2019-03-27T20:24:53.557Z,25.17
2019-03-27T20:27:23.272Z,26.27
2019-03-27T20:29:53.366Z,32.38
2019-03-27T20:32:23.202Z,25.90
2019-03-27T20:34:56.879Z,15.60
2019-03-27T20:37:26.709Z,14.95
2019-03-27T20:39:57.125Z,15.28
2019-03-27T20:42:28.071Z,15.85
2019-03-27T20:44:59.024Z,17.87
2019-03-27T20:47:29.126Z,16.80
2019-03-27T20:50:00.750Z,22.70
2019-03-27T20:52:33.637Z,32.23
2019-03-27T20:55:03.588Z,30.60
2019-03-27T20:57:33.439Z,23.70
2019-03-27T21:00:04.642Z,16.07
2019-03-27T21:02:39.448Z,14.93
2019-03-27T21:05:09.684Z,14.18
2019-03-27T21:07:39.571Z,14.07
2019-03-27T21:10:10.010Z,14.33
2019-03-27T21:12:40.220Z,14.25
2019-03-27T21:15:10.314Z,15.53
2019-03-27T21:17:41.567Z,14.60
2019-03-27T21:20:12.026Z,17.77
2019-03-27T21:22:42.000Z,15.58
2019-03-27T21:25:12.630Z,17.87
2019-03-27T21:27:42.675Z,23.12
2019-03-27T21:30:13.136Z,21.30
2019-03-27T21:32:42.963Z,16.57
2019-03-27T21:35:12.848Z,13.98
2019-03-27T21:37:42.752Z,17.15
2019-03-27T21:40:13.195Z,19.35
2019-03-27T21:42:43.038Z,14.50
2019-03-27T21:45:14.498Z,12.82
2019-03-27T21:47:47.886Z,14.23
2019-03-27T21:50:17.669Z,13.85
2019-03-27T21:53:00.002Z,13.62
2019-03-27T21:55:22.875Z,13.40
2019-03-27T21:57:51.092Z,14.60
2019-03-27T22:00:37.044Z,13.00
2019-03-27T22:03:12.530Z,14.00
2019-03-27T22:05:43.779Z,14.50
2019-03-27T22:08:16.996Z,13.35
2019-03-27T22:10:47.026Z,13.48
2019-03-27T22:13:16.814Z,14.33
2019-03-27T22:15:46.570Z,13.80
2019-03-27T22:18:16.649Z,14.43
2019-03-27T22:20:46.678Z,14.58
2019-03-27T22:23:16.503Z,14.45
2019-03-27T22:25:46.329Z,13.90
2019-03-27T22:28:16.047Z,14.20
2019-03-27T22:30:45.725Z,13.88
2019-03-27T22:33:15.477Z,12.95
2019-03-27T22:35:45.641Z,14.30
2019-03-27T22:38:18.319Z,16.52
2019-03-27T22:40:48.142Z,14.45
2019-03-27T22:43:17.845Z,13.98
2019-03-27T22:45:47.529Z,16.00
2019-03-27T22:48:17.283Z,14.98
2019-03-27T22:50:47.076Z,17.52
2019-03-27T22:53:17.033Z,19.35
2019-03-27T22:55:50.055Z,15.85
2019-03-27T22:58:18.415Z,17.30
2019-03-27T23:00:53.171Z,13.58
2019-03-27T23:03:22.963Z,14.45
2019-03-27T23:05:52.801Z,14.93
2019-03-27T23:08:23.108Z,15.85
2019-03-27T23:10:53.051Z,17.95
2019-03-27T23:13:22.858Z,15.90
2019-03-27T23:15:52.702Z,14.83
2019-03-27T23:18:22.613Z,15.58
2019-03-27T23:20:52.752Z,15.00
2019-03-27T23:23:22.817Z,13.32
2019-03-27T23:26:02.550Z,13.83
2019-03-27T23:28:24.219Z,14.53
2019-03-27T23:30:54.063Z,15.95
2019-03-27T23:33:24.068Z,16.50
2019-03-27T23:35:53.803Z,16.00
2019-03-27T23:38:23.517Z,15.88
2019-03-27T23:40:53.271Z,14.35
2019-03-27T23:43:23.077Z,14.90
2019-03-27T23:45:52.874Z,14.73
2019-03-27T23:48:22.562Z,15.30
2019-03-27T23:50:52.322Z,13.85
2019-03-27T23:53:22.077Z,15.65
2019-03-27T23:55:51.914Z,15.15
2019-03-27T23:58:21.624Z,16.97
